Time;durP1;ratioP1;P1;durP2;ratioP2;P2;SDS_P1;SDS_P2;PMS_P1;PMS_P2;Temp;Humidity;BMP_temperature;BMP_pressure;BME280_temperature;BME280_humidity;BME280_pressure;Samples;Min_cycle;Max_cycle;Signal;HPM_P1;HPM_P2
2021/12/14 00:00:59;;;;;;;3.30;2.75;;;22.30;35.40;;;;;;5074059;28;20398;-68
2021/12/14 00:03:30;;;;;;;3.10;2.80;;;22.30;35.40;;;;;;5075839;28;20891;-68
2021/12/14 00:05:56;;;;;;;3.00;2.58;;;22.30;35.40;;;;;;5074153;28;20388;-68
2021/12/14 00:08:25;;;;;;;3.35;2.78;;;22.30;35.30;;;;;;5074175;28;20395;-68
2021/12/14 00:16:08;;;;;;;3.70;2.60;;;22.20;35.20;;;;;;5074720;28;20385;-67
2021/12/14 00:18:34;;;;;;;3.00;2.70;;;22.20;35.30;;;;;;5074465;28;20445;-68
2021/12/14 00:21:08;;;;;;;3.30;2.90;;;22.20;35.30;;;;;;5074165;28;20481;-68
2021/12/14 00:26:21;;;;;;;3.33;2.78;;;22.20;35.30;;;;;;5073513;28;20411;-68
2021/12/14 00:28:48;;;;;;;3.42;2.95;;;22.20;35.40;;;;;;5073444;28;20748;-68
2021/12/14 00:31:16;;;;;;;3.60;2.80;;;22.20;35.30;;;;;;5073458;28;20379;-67
2021/12/14 00:33:47;;;;;;;3.10;2.80;;;22.20;35.30;;;;;;5073552;28;20396;-67
2021/12/14 00:36:14;;;;;;;3.20;2.80;;;22.20;35.20;;;;;;5073644;28;20478;-68
2021/12/14 00:38:41;;;;;;;3.20;2.90;;;22.10;35.70;;;;;;5073516;28;20471;-68
2021/12/14 00:41:15;;;;;;;2.97;2.65;;;22.20;35.10;;;;;;5073188;28;20447;-67
2021/12/14 00:43:42;;;;;;;3.20;2.90;;;22.10;35.10;;;;;;5073364;28;20383;-68
2021/12/14 00:46:08;;;;;;;3.40;3.03;;;22.10;35.00;;;;;;5073288;28;20974;-67
2021/12/14 00:48:35;;;;;;;3.47;2.80;;;22.10;35.00;;;;;;5073363;28;20482;-67
2021/12/14 00:51:02;;;;;;;3.38;3.03;;;22.10;35.00;;;;;;5073195;28;20968;-67
2021/12/14 00:53:29;;;;;;;3.28;2.97;;;22.10;35.00;;;;;;5072702;28;20419;-67
2021/12/14 00:55:57;;;;;;;3.22;2.85;;;22.10;35.00;;;;;;5073264;28;20387;-68
2021/12/14 00:58:23;;;;;;;3.10;2.80;;;22.10;35.20;;;;;;5073383;28;20398;-68
2021/12/14 01:00:59;;;;;;;3.80;2.60;;;22.10;35.10;;;;;;5073102;28;20445;-68
2021/12/14 01:03:28;;;;;;;3.30;3.00;;;22.10;35.00;;;;;;5072903;28;20398;-68
2021/12/14 01:05:54;;;;;;;3.10;2.80;;;22.10;35.00;;;;;;5072991;28;20904;-68
2021/12/14 01:08:23;;;;;;;3.03;2.67;;;22.10;35.10;;;;;;5071586;28;20392;-68
2021/12/14 01:10:55;;;;;;;3.40;2.75;;;22.10;35.00;;;;;;5072862;28;20521;-67
2021/12/14 01:13:24;;;;;;;3.58;2.90;;;22.10;35.10;;;;;;5053668;28;20487;-68
2021/12/14 01:16:02;;;;;;;3.20;2.90;;;22.00;35.00;;;;;;5073295;28;20482;-67
2021/12/14 01:22:12;;;;;;;3.20;2.90;;;22.00;35.00;;;;;;5073044;28;20403;-68
2021/12/14 01:24:06;;;;;;;3.42;3.10;;;22.00;34.90;;;;;;5065059;28;20388;-68
2021/12/14 01:26:34;;;;;;;3.33;2.92;;;22.00;35.00;;;;;;5072689;28;20404;-67
2021/12/14 01:29:02;;;;;;;3.08;2.75;;;22.00;34.90;;;;;;5072597;28;20530;-68
2021/12/14 01:31:35;;;;;;;3.28;2.95;;;22.00;35.00;;;;;;5053936;28;20866;-68
2021/12/14 01:34:07;;;;;;;3.20;2.90;;;22.00;34.90;;;;;;5072463;28;20450;-68
2021/12/14 01:39:21;;;;;;;3.33;3.00;;;22.00;34.90;;;;;;5072530;28;20395;-68
2021/12/14 01:42:07;;;;;;;3.45;2.80;;;22.00;34.80;;;;;;5054431;28;20411;-68
2021/12/14 01:44:41;;;;;;;3.15;2.85;;;22.00;34.80;;;;;;5072201;28;20425;-67
2021/12/14 01:47:13;;;;;;;3.30;3.00;;;22.00;34.80;;;;;;5072356;28;20941;-67
2021/12/14 01:49:39;;;;;;;3.13;2.80;;;22.00;34.80;;;;;;5071891;28;20482;-67
2021/12/14 01:52:09;;;;;;;3.22;2.92;;;22.00;34.90;;;;;;5072112;28;20475;-67
2021/12/14 01:54:41;;;;;;;3.22;2.90;;;22.00;34.80;;;;;;5072259;28;20486;-68
2021/12/14 01:57:11;;;;;;;3.42;2.80;;;22.00;34.80;;;;;;5072050;28;20383;-68
2021/12/14 01:59:40;;;;;;;3.10;2.80;;;21.90;34.70;;;;;;5071619;28;20391;-68
2021/12/14 02:02:23;;;;;;;3.17;2.88;;;21.90;34.70;;;;;;5071835;28;20391;-67
2021/12/14 02:04:52;;;;;;;3.00;2.70;;;21.90;34.60;;;;;;5072001;28;20396;-68
2021/12/14 02:07:19;;;;;;;3.58;2.90;;;21.90;34.60;;;;;;5053428;28;20472;-67
2021/12/14 02:09:48;;;;;;;2.92;2.63;;;21.90;34.60;;;;;;5071896;28;20372;-67
2021/12/14 02:12:22;;;;;;;3.22;2.83;;;21.90;34.60;;;;;;5054367;28;20395;-68
2021/12/14 02:14:48;;;;;;;2.97;2.67;;;21.90;34.60;;;;;;5071768;28;20901;-67
2021/12/14 02:17:17;;;;;;;3.00;2.70;;;21.90;34.60;;;;;;5072111;28;20429;-68
2021/12/14 02:19:44;;;;;;;2.90;2.60;;;21.90;34.60;;;;;;5071394;28;20406;-67
2021/12/14 02:22:11;;;;;;;3.30;2.85;;;21.90;34.60;;;;;;5053651;28;20395;-68
2021/12/14 02:24:39;;;;;;;3.58;2.80;;;21.90;35.20;;;;;;5071560;28;20394;-67
2021/12/14 02:27:05;;;;;;;3.33;3.03;;;21.90;34.50;;;;;;5072108;28;20506;-67
2021/12/14 02:29:36;;;;;;;3.58;2.80;;;21.90;34.60;;;;;;5070980;28;20396;-67
2021/12/14 02:32:11;;;;;;;2.92;2.63;;;21.90;34.60;;;;;;5054059;28;20455;-68
2021/12/14 02:34:44;;;;;;;3.20;2.90;;;21.90;34.60;;;;;;5071631;28;20398;-68
2021/12/14 02:37:11;;;;;;;2.90;2.60;;;21.90;34.70;;;;;;5053573;28;20484;-68
2021/12/14 02:42:21;;;;;;;3.10;2.63;;;21.90;35.20;;;;;;5071412;28;20450;-67
2021/12/14 02:44:50;;;;;;;2.83;2.53;;;21.90;34.60;;;;;;5053434;28;20396;-67
2021/12/14 02:47:17;;;;;;;2.78;2.55;;;21.90;34.60;;;;;;5071304;28;20443;-67
2021/12/14 02:49:45;;;;;;;3.20;2.90;;;21.90;34.60;;;;;;5071427;28;20391;-67
2021/12/14 02:52:14;;;;;;;2.72;2.53;;;21.90;34.60;;;;;;5053319;28;20410;-68
2021/12/14 02:54:50;;;;;;;3.65;2.70;;;21.80;34.60;;;;;;5071871;28;20864;-67
2021/12/14 02:57:30;;;;;;;3.00;2.70;;;21.80;34.50;;;;;;5070978;28;20391;-67
2021/12/14 02:59:56;;;;;;;3.13;2.72;;;21.80;34.50;;;;;;5071379;28;20433;-67
2021/12/14 03:02:31;;;;;;;3.20;2.90;;;21.80;34.50;;;;;;5070941;28;20423;-67
2021/12/14 03:05:08;;;;;;;3.05;2.50;;;21.80;34.60;;;;;;5071279;28;20379;-67
2021/12/14 03:07:43;;;;;;;2.90;2.40;;;21.80;34.60;;;;;;5071317;28;20447;-67
2021/12/14 03:12:46;;;;;;;2.50;2.13;;;21.80;34.60;;;;;;5071309;28;20418;-67
2021/12/14 03:15:55;;;;;;;3.20;2.70;;;21.80;34.50;;;;;;5071255;28;20396;-67
2021/12/14 03:18:30;;;;;;;2.85;2.55;;;21.80;34.40;;;;;;4989539;28;20449;-67
2021/12/14 03:21:02;;;;;;;3.00;2.60;;;21.80;34.50;;;;;;5059351;28;20403;-67
2021/12/14 03:23:37;;;;;;;2.70;2.50;;;21.80;34.50;;;;;;5070810;28;20437;-67
2021/12/14 03:26:07;;;;;;;2.80;2.50;;;21.80;34.60;;;;;;5071026;28;20418;-67
2021/12/14 03:28:34;;;;;;;2.90;2.40;;;21.80;35.10;;;;;;5071051;28;20402;-68
2021/12/14 03:31:11;;;;;;;3.17;2.60;;;21.80;34.50;;;;;;5071036;28;20383;-68
2021/12/14 03:33:51;;;;;;;2.88;2.50;;;21.80;34.40;;;;;;5070484;28;20395;-67
2021/12/14 03:36:24;;;;;;;2.60;2.20;;;21.80;34.40;;;;;;5073340;28;20398;-68
2021/12/14 03:39:24;;;;;;;3.05;2.60;;;21.80;34.40;;;;;;5074905;28;20395;-67
2021/12/14 03:42:05;;;;;;;2.58;2.35;;;21.80;34.40;;;;;;5059839;28;20415;-67
2021/12/14 03:44:35;;;;;;;2.67;2.47;;;21.80;34.30;;;;;;5074500;28;20409;-67
2021/12/14 03:47:05;;;;;;;2.50;2.30;;;21.80;34.40;;;;;;5074422;28;20756;-68
2021/12/14 03:49:38;;;;;;;2.65;2.38;;;21.80;34.40;;;;;;5056006;28;20399;-67
2021/12/14 03:52:09;;;;;;;2.50;2.30;;;21.80;34.40;;;;;;5075006;28;20395;-67
2021/12/14 03:54:35;;;;;;;2.65;2.42;;;21.80;34.30;;;;;;5074476;28;20788;-67
2021/12/14 03:57:01;;;;;;;2.30;2.10;;;21.80;34.40;;;;;;5074287;28;20419;-67
2021/12/14 03:59:29;;;;;;;2.78;2.30;;;21.80;34.50;;;;;;5073963;28;20396;-67
2021/12/14 04:01:57;;;;;;;2.60;2.25;;;21.80;34.40;;;;;;5074355;28;20387;-67
2021/12/14 04:04:28;;;;;;;2.65;2.33;;;21.80;34.40;;;;;;5074078;28;20424;-67
2021/12/14 04:06:58;;;;;;;3.40;2.30;;;21.80;34.40;;;;;;5056142;28;20954;-68
2021/12/14 04:09:28;;;;;;;4.35;2.10;;;21.80;34.50;;;;;;5073786;28;20391;-68
2021/12/14 04:11:54;;;;;;;4.18;2.10;;;21.90;34.50;;;;;;5074301;28;20453;-67
2021/12/14 04:14:21;;;;;;;5.10;2.53;;;22.00;34.90;;;;;;5056651;28;20796;-68
2021/12/14 04:16:51;;;;;;;5.03;2.45;;;22.10;34.80;;;;;;5074683;28;20449;-68
2021/12/14 04:19:23;;;;;;;5.55;2.60;;;22.10;35.10;;;;;;5075327;28;20392;-67
2021/12/14 04:21:50;;;;;;;4.15;2.50;;;22.10;35.70;;;;;;5074395;28;20399;-68
2021/12/14 04:24:21;;;;;;;6.38;2.50;;;22.10;36.00;;;;;;5073227;28;20898;-68
2021/12/14 04:26:47;;;;;;;4.97;2.50;;;22.10;36.40;;;;;;5070947;28;20466;-68
2021/12/14 04:29:13;;;;;;;5.43;2.38;;;22.20;36.60;;;;;;5073378;28;20888;-68
2021/12/14 04:31:42;;;;;;;4.15;2.38;;;22.20;36.30;;;;;;5061659;28;20899;-68
2021/12/14 04:34:08;;;;;;;5.17;2.20;;;22.20;35.30;;;;;;5070806;28;20388;-68
2021/12/14 04:36:34;;;;;;;4.38;2.17;;;22.20;35.80;;;;;;5073358;28;20868;-67
2021/12/14 04:39:30;;;;;;;7.25;2.40;;;22.20;35.80;;;;;;5055087;28;20884;-67
2021/12/14 04:53:10;;;;;;;4.05;1.90;;;22.20;35.40;;;;;;5072987;28;20390;-68
2021/12/14 04:55:40;;;;;;;3.67;2.00;;;22.20;35.40;;;;;;5072788;28;20471;-68
2021/12/14 04:58:06;;;;;;;5.28;1.88;;;22.20;35.30;;;;;;5055233;28;20404;-68
2021/12/14 05:00:45;;;;;;;3.83;1.70;;;22.20;35.10;;;;;;5073076;28;20380;-68
2021/12/14 05:03:15;;;;;;;4.50;2.15;;;22.10;35.10;;;;;;5073109;28;20388;-68
2021/12/14 05:05:48;;;;;;;3.55;2.13;;;22.10;35.50;;;;;;5072455;28;20812;-68
2021/12/14 05:11:08;;;;;;;5.50;2.07;;;22.10;35.30;;;;;;5072851;28;20414;-68
2021/12/14 05:13:43;;;;;;;3.88;1.80;;;22.10;35.60;;;;;;5043603;28;20392;-68
2021/12/14 05:16:19;;;;;;;2.45;1.67;;;22.10;35.60;;;;;;5072892;28;20438;-68
2021/12/14 05:18:51;;;;;;;4.15;1.70;;;22.10;35.10;;;;;;5054863;28;20470;-69
2021/12/14 05:21:30;;;;;;;2.85;1.73;;;22.10;35.20;;;;;;5072689;28;20463;-68
2021/12/14 05:23:57;;;;;;;1.90;1.40;;;22.10;35.20;;;;;;5072381;28;20383;-68
2021/12/14 05:26:23;;;;;;;2.35;1.60;;;22.00;34.90;;;;;;5072507;28;20403;-68
2021/12/14 05:28:49;;;;;;;2.60;1.50;;;22.00;34.70;;;;;;5072580;28;20456;-68
2021/12/14 05:31:15;;;;;;;2.45;1.60;;;22.10;34.70;;;;;;5069965;28;20388;-69
2021/12/14 05:33:42;;;;;;;2.90;1.50;;;22.00;35.00;;;;;;5077774;28;21842;-68
2021/12/14 05:36:14;;;;;;;3.40;1.52;;;22.00;35.00;;;;;;5081216;28;20388;-68
2021/12/14 05:44:04;;;;;;;2.20;1.65;;;22.00;34.80;;;;;;5073027;28;20433;-68
2021/12/14 05:46:30;;;;;;;3.40;1.65;;;22.00;34.90;;;;;;5072129;28;20404;-68
2021/12/14 05:49:05;;;;;;;3.65;1.70;;;22.00;34.80;;;;;;5073312;28;20391;-68
2021/12/14 05:51:32;;;;;;;6.30;1.85;;;22.00;35.30;;;;;;5072010;28;20388;-68
2021/12/14 05:53:58;;;;;;;5.93;1.60;;;22.00;35.80;;;;;;5071758;28;20419;-68
2021/12/14 05:56:28;;;;;;;3.85;1.58;;;22.00;35.80;;;;;;5071879;28;20407;-67
2021/12/14 05:58:54;;;;;;;5.47;1.70;;;22.00;36.20;;;;;;5053344;28;20391;-68
2021/12/14 06:01:24;;;;;;;2.60;1.40;;;22.10;36.10;;;;;;5071922;28;20409;-68
2021/12/14 06:03:59;;;;;;;4.97;1.73;;;22.10;36.10;;;;;;5071744;28;20419;-68
2021/12/14 06:06:32;;;;;;;5.35;1.63;;;22.10;36.20;;;;;;5071812;28;20443;-68
2021/12/14 06:09:03;;;;;;;3.72;1.60;;;22.10;36.50;;;;;;5072394;28;20396;-68
2021/12/14 06:11:29;;;;;;;5.00;1.65;;;22.10;36.50;;;;;;5071432;28;20522;-68
2021/12/14 06:13:55;;;;;;;5.35;2.00;;;22.20;36.70;;;;;;5071384;28;20881;-68
2021/12/14 06:16:25;;;;;;;3.83;2.10;;;22.20;36.60;;;;;;5071641;28;20459;-68
2021/12/14 06:18:52;;;;;;;4.65;2.70;;;22.20;36.50;;;;;;5071616;28;20419;-68
2021/12/14 06:21:29;;;;;;;4.55;2.30;;;22.30;37.40;;;;;;5071429;28;20384;-68
2021/12/14 06:24:06;;;;;;;4.75;1.92;;;22.30;37.10;;;;;;5071286;28;20392;-70
2021/12/14 06:26:37;;;;;;;3.90;1.80;;;22.30;37.10;;;;;;5071518;28;20526;-68
2021/12/14 06:29:10;;;;;;;7.90;2.00;;;22.30;36.90;;;;;;5071125;28;20392;-68
2021/12/14 06:31:37;;;;;;;5.38;1.77;;;22.30;35.90;;;;;;5072212;28;20458;-68
2021/12/14 06:34:20;;;;;;;6.80;2.10;;;22.20;36.40;;;;;;5054092;28;20483;-68
2021/12/14 06:37:03;;;;;;;6.13;1.73;;;22.20;36.70;;;;;;5071472;28;20384;-68
2021/12/14 06:39:30;;;;;;;4.40;1.60;;;22.20;36.70;;;;;;5071168;28;20396;-68
2021/12/14 06:42:21;;;;;;;5.95;1.65;;;22.20;36.50;;;;;;5069901;28;20411;-68
2021/12/14 06:44:47;;;;;;;3.08;1.50;;;22.20;37.10;;;;;;5067883;28;21084;-69
2021/12/14 06:47:13;;;;;;;4.57;1.63;;;22.20;36.00;;;;;;5069646;28;20445;-68
2021/12/14 06:49:38;;;;;;;4.27;1.60;;;22.20;36.10;;;;;;5069820;28;20382;-68
2021/12/14 06:52:04;;;;;;;4.30;1.70;;;22.20;36.00;;;;;;5052528;28;20412;-68
2021/12/14 06:54:32;;;;;;;3.88;1.40;;;22.20;35.80;;;;;;5069182;28;20405;-68
2021/12/14 06:57:01;;;;;;;4.40;1.40;;;22.10;35.70;;;;;;5070378;28;20392;-68
2021/12/14 06:59:27;;;;;;;3.30;1.40;;;22.10;35.70;;;;;;5067147;28;20868;-68
2021/12/14 07:01:58;;;;;;;2.78;1.35;;;22.10;35.70;;;;;;5070018;28;20395;-68
2021/12/14 07:04:31;;;;;;;3.28;1.40;;;22.10;35.60;;;;;;5070459;28;20398;-68
2021/12/14 07:07:08;;;;;;;2.40;1.40;;;22.10;35.60;;;;;;5068256;28;20403;-69
2021/12/14 07:09:34;;;;;;;3.55;1.33;;;22.10;35.50;;;;;;5072028;28;20394;-68
2021/12/14 07:12:08;;;;;;;2.90;1.23;;;22.10;35.50;;;;;;5074517;28;20387;-69
2021/12/14 07:14:40;;;;;;;2.90;1.27;;;22.10;35.40;;;;;;5056509;28;20411;-68
2021/12/14 07:17:13;;;;;;;3.90;1.27;;;22.10;35.30;;;;;;5056818;28;20441;-69
2021/12/14 07:19:42;;;;;;;2.85;1.10;;;22.10;35.20;;;;;;5074373;28;20413;-68
2021/12/14 07:22:22;;;;;;;2.83;1.30;;;22.10;35.20;;;;;;5075012;28;20859;-68
2021/12/14 07:25:01;;;;;;;3.20;1.55;;;22.10;35.20;;;;;;5074422;28;20375;-69
2021/12/14 07:27:29;;;;;;;1.92;1.15;;;22.00;35.10;;;;;;5074101;28;20451;-68
2021/12/14 07:30:20;;;;;;;3.20;1.20;;;22.00;35.10;;;;;;5056438;28;20740;-68
2021/12/14 07:32:56;;;;;;;1.75;1.20;;;22.00;35.10;;;;;;5074207;28;20384;-69
2021/12/14 07:35:32;;;;;;;2.27;1.17;;;22.00;35.10;;;;;;5074392;28;20387;-68
2021/12/14 07:38:15;;;;;;;2.30;1.00;;;22.00;35.10;;;;;;5074003;28;20856;-68
2021/12/14 07:40:44;;;;;;;1.75;1.10;;;22.00;35.10;;;;;;5073796;28;20433;-69
2021/12/14 07:43:33;;;;;;;2.50;1.10;;;21.90;35.10;;;;;;5073919;28;20379;-69
2021/12/14 07:45:59;;;;;;;1.77;1.17;;;21.90;35.10;;;;;;5062969;28;21102;-68
2021/12/14 07:48:42;;;;;;;1.90;1.00;;;21.90;35.10;;;;;;5073845;28;20502;-68
2021/12/14 07:51:09;;;;;;;2.33;1.10;;;21.90;35.00;;;;;;5073975;28;20383;-69
2021/12/14 07:53:40;;;;;;;2.00;1.10;;;21.90;35.00;;;;;;5055762;28;20423;-68
2021/12/14 07:56:07;;;;;;;2.00;1.10;;;22.00;35.00;;;;;;5055938;28;20388;-69
2021/12/14 07:58:41;;;;;;;2.13;1.17;;;22.00;35.00;;;;;;5073728;28;20387;-69
2021/12/14 08:01:08;;;;;;;1.92;1.17;;;22.00;35.00;;;;;;5073913;28;20407;-68
2021/12/14 08:03:36;;;;;;;1.40;1.00;;;22.00;35.00;;;;;;5073571;28;20901;-69
2021/12/14 08:06:09;;;;;;;1.73;1.23;;;21.90;34.90;;;;;;5055573;28;20391;-69
2021/12/14 08:08:45;;;;;;;1.43;1.00;;;21.90;34.90;;;;;;5073727;28;20457;-68
2021/12/14 08:14:01;;;;;;;1.50;0.90;;;21.90;34.90;;;;;;5073202;28;20477;-68
2021/12/14 08:16:48;;;;;;;1.45;1.00;;;21.90;34.90;;;;;;5073389;28;20896;-68
2021/12/14 08:19:39;;;;;;;1.70;1.15;;;21.90;34.80;;;;;;5073341;28;20400;-68
2021/12/14 08:22:15;;;;;;;2.03;1.00;;;21.90;34.80;;;;;;5054281;28;20455;-68
2021/12/14 08:24:48;;;;;;;1.60;0.90;;;21.90;34.90;;;;;;5055495;28;20794;-68
2021/12/14 08:27:19;;;;;;;1.40;1.00;;;21.90;34.80;;;;;;5072928;28;20887;-68
2021/12/14 08:29:54;;;;;;;2.05;1.08;;;21.90;34.90;;;;;;5072957;28;20391;-68
2021/12/14 08:32:24;;;;;;;1.73;1.08;;;21.90;34.90;;;;;;5055139;28;20428;-68
2021/12/14 08:34:52;;;;;;;1.42;1.00;;;21.90;34.90;;;;;;5055077;28;20400;-69
2021/12/14 08:37:42;;;;;;;1.60;1.10;;;21.90;35.00;;;;;;5073116;28;20380;-68
2021/12/14 08:40:23;;;;;;;2.03;1.10;;;21.90;35.00;;;;;;5055151;28;20499;-68
2021/12/14 08:45:30;;;;;;;2.10;1.10;;;21.80;35.10;;;;;;5073002;28;20376;-69
2021/12/14 08:48:02;;;;;;;2.03;1.20;;;21.80;35.10;;;;;;5072621;28;20416;-68
2021/12/14 08:50:29;;;;;;;1.58;0.90;;;21.80;35.10;;;;;;5054186;28;20396;-68
2021/12/14 08:52:55;;;;;;;1.80;1.20;;;21.80;35.20;;;;;;5072786;28;20818;-68
2021/12/14 08:55:23;;;;;;;1.40;0.95;;;21.80;35.10;;;;;;5072826;28;20914;-69
2021/12/14 08:57:49;;;;;;;2.17;1.25;;;21.80;35.10;;;;;;5054485;28;20439;-69
2021/12/14 09:00:30;;;;;;;1.50;1.10;;;21.80;35.10;;;;;;5072607;28;20776;-69
2021/12/14 09:03:00;;;;;;;2.13;1.30;;;21.80;35.10;;;;;;5071776;28;20887;-68
2021/12/14 09:05:33;;;;;;;1.38;1.13;;;21.80;35.10;;;;;;5072468;28;20410;-69
2021/12/14 09:07:59;;;;;;;2.25;1.40;;;21.80;35.10;;;;;;5054297;28;20866;-69
2021/12/14 09:10:29;;;;;;;1.63;1.30;;;21.80;35.10;;;;;;5054400;28;20441;-69
2021/12/14 09:12:59;;;;;;;1.55;1.30;;;21.80;35.10;;;;;;5072407;28;20388;-69
2021/12/14 09:15:37;;;;;;;1.80;1.30;;;21.80;35.10;;;;;;5072475;28;20379;-69
2021/12/14 09:18:03;;;;;;;2.25;1.52;;;21.80;35.10;;;;;;5053972;28;20395;-68
2021/12/14 09:20:34;;;;;;;1.55;1.17;;;21.80;35.10;;;;;;5054236;28;20400;-68
2021/12/14 09:23:09;;;;;;;1.98;1.38;;;21.80;35.10;;;;;;5053957;28;20395;-69
2021/12/14 09:25:35;;;;;;;1.92;1.40;;;21.80;35.10;;;;;;5054126;28;20456;-68
2021/12/14 09:28:02;;;;;;;2.00;1.40;;;21.80;35.10;;;;;;5053973;28;20443;-68
2021/12/14 09:30:32;;;;;;;1.95;1.33;;;21.80;35.10;;;;;;5053815;28;20388;-69
2021/12/14 09:32:58;;;;;;;1.60;1.25;;;21.80;35.00;;;;;;5053129;28;20413;-69
2021/12/14 09:35:27;;;;;;;1.60;1.30;;;21.80;35.00;;;;;;5053988;28;20388;-69
2021/12/14 09:37:55;;;;;;;1.60;1.38;;;21.80;35.00;;;;;;5071368;28;20477;-69
2021/12/14 09:40:32;;;;;;;1.60;1.30;;;21.80;35.00;;;;;;5053947;28;20387;-69
2021/12/14 09:42:58;;;;;;;2.05;1.40;;;21.80;35.00;;;;;;5071839;28;20396;-69
2021/12/14 09:45:43;;;;;;;1.75;1.50;;;21.80;35.00;;;;;;5053521;28;20400;-68
2021/12/14 09:48:11;;;;;;;2.17;1.38;;;21.80;35.00;;;;;;5071445;28;20411;-68
2021/12/14 09:50:38;;;;;;;1.60;1.20;;;21.80;35.00;;;;;;5053751;28;20398;-69
2021/12/14 09:53:07;;;;;;;1.58;1.35;;;21.80;35.00;;;;;;5071798;28;20895;-68
2021/12/14 09:55:38;;;;;;;1.70;1.30;;;21.80;35.00;;;;;;5053543;28;20475;-68
2021/12/14 09:58:09;;;;;;;1.50;1.10;;;21.80;35.00;;;;;;5071249;28;20390;-68
2021/12/14 10:00:48;;;;;;;1.52;1.23;;;21.80;35.00;;;;;;5053614;28;20388;-68
2021/12/14 10:03:16;;;;;;;1.80;1.30;;;21.80;35.00;;;;;;5053497;28;20466;-69
2021/12/14 10:05:57;;;;;;;1.70;1.20;;;21.80;35.00;;;;;;5071000;28;20891;-69
2021/12/14 10:08:32;;;;;;;1.80;1.20;;;21.80;35.00;;;;;;5053460;28;20473;-69
2021/12/14 10:11:08;;;;;;;1.70;1.20;;;21.80;35.00;;;;;;5053509;28;20927;-69
2021/12/14 10:13:38;;;;;;;1.98;1.20;;;21.80;34.90;;;;;;5071457;28;20463;-68
2021/12/14 10:16:05;;;;;;;1.40;1.10;;;21.80;34.90;;;;;;5070404;28;20384;-69
2021/12/14 10:18:55;;;;;;;1.63;1.30;;;21.80;34.90;;;;;;5057043;28;20873;-69
2021/12/14 10:21:27;;;;;;;1.85;1.30;;;21.80;34.80;;;;;;5038367;28;20851;-68
2021/12/14 10:23:56;;;;;;;2.10;1.50;;;21.80;34.80;;;;;;5068080;28;20685;-68
2021/12/14 10:26:24;;;;;;;2.38;1.30;;;21.80;34.80;;;;;;5053045;28;20391;-68
2021/12/14 10:28:55;;;;;;;1.50;1.30;;;21.80;34.80;;;;;;5053008;28;20402;-68
2021/12/14 10:31:35;;;;;;;1.57;1.30;;;21.80;34.80;;;;;;5070939;28;20380;-69
2021/12/14 10:34:05;;;;;;;1.23;0.98;;;21.80;34.80;;;;;;5052382;28;20757;-68
2021/12/14 10:36:40;;;;;;;1.50;1.20;;;21.80;34.70;;;;;;5070900;28;20438;-68
2021/12/14 10:44:37;;;;;;;1.63;1.40;;;21.80;34.70;;;;;;5050873;28;20432;-68
2021/12/14 10:47:04;;;;;;;2.33;1.30;;;21.80;34.70;;;;;;5050848;28;20417;-68
2021/12/14 10:49:30;;;;;;;1.45;1.25;;;21.80;34.80;;;;;;5050844;28;20417;-68
2021/12/14 10:52:01;;;;;;;1.80;1.27;;;21.80;34.70;;;;;;5032429;28;20421;-68
2021/12/14 10:54:28;;;;;;;1.50;1.08;;;21.80;34.70;;;;;;5050673;28;20442;-69
2021/12/14 10:56:58;;;;;;;2.00;1.40;;;21.90;34.70;;;;;;5050256;28;20389;-68
2021/12/14 10:59:29;;;;;;;1.83;1.33;;;22.00;34.70;;;;;;5032566;28;20963;-68
2021/12/14 11:01:55;;;;;;;1.70;1.10;;;22.10;34.60;;;;;;5049914;28;20750;-68
2021/12/14 11:04:36;;;;;;;1.80;1.38;;;22.10;34.50;;;;;;5050780;28;20394;-69
2021/12/14 11:07:07;;;;;;;1.70;1.20;;;22.10;34.40;;;;;;5050628;28;20761;-68
2021/12/14 11:09:42;;;;;;;2.72;1.40;;;22.10;34.50;;;;;;5050739;28;20389;-68
2021/12/14 11:12:28;;;;;;;1.42;1.20;;;22.10;34.60;;;;;;5050380;28;20385;-69
2021/12/14 11:15:04;;;;;;;3.35;1.33;;;22.10;34.50;;;;;;5032288;28;20408;-68
2021/12/14 11:18:14;;;;;;;3.65;1.35;;;22.10;34.50;;;;;;5048189;28;20390;-68
2021/12/14 11:20:25;;;;;;;2.70;1.30;;;22.00;34.40;;;;;;5039587;28;20401;-68
2021/12/14 11:22:56;;;;;;;2.03;1.35;;;22.10;34.50;;;;;;5049453;28;20754;-67
2021/12/14 11:25:25;;;;;;;2.28;1.20;;;22.10;34.80;;;;;;5049245;28;20935;-68
2021/12/14 11:28:04;;;;;;;2.28;1.20;;;22.20;34.80;;;;;;5043643;28;20417;-68
2021/12/14 11:30:42;;;;;;;1.95;1.30;;;22.30;35.00;;;;;;5023293;28;20405;-68
2021/12/14 11:33:19;;;;;;;2.00;1.20;;;22.30;35.50;;;;;;5038173;28;20794;-68
2021/12/14 11:36:06;;;;;;;3.22;1.30;;;22.30;34.90;;;;;;5048685;28;20472;-68
2021/12/14 11:38:40;;;;;;;2.35;1.27;;;22.40;34.90;;;;;;5025979;28;20893;-68
2021/12/14 11:41:27;;;;;;;2.22;1.25;;;22.40;34.80;;;;;;5054970;28;20835;-67
2021/12/14 11:44:02;;;;;;;1.52;1.27;;;22.40;34.90;;;;;;5063725;28;20376;-67
2021/12/14 11:46:31;;;;;;;2.92;1.25;;;22.40;34.90;;;;;;5070306;28;20471;-67
2021/12/14 11:49:02;;;;;;;2.25;1.40;;;22.40;34.90;;;;;;5070263;28;20384;-67
2021/12/14 11:51:29;;;;;;;1.83;1.10;;;22.40;34.80;;;;;;5052131;28;20396;-67
2021/12/14 11:53:57;;;;;;;2.80;1.20;;;22.30;34.60;;;;;;5069764;28;20856;-68
2021/12/14 11:56:27;;;;;;;2.00;1.20;;;22.40;34.50;;;;;;5053068;28;20453;-67
2021/12/14 11:58:56;;;;;;;2.22;1.30;;;22.30;34.50;;;;;;5073407;28;20414;-67
2021/12/14 12:01:46;;;;;;;1.45;1.15;;;22.30;34.40;;;;;;5073500;28;20402;-68
2021/12/14 12:04:34;;;;;;;2.75;1.60;;;22.40;34.40;;;;;;5073333;28;20866;-67
2021/12/14 12:09:40;;;;;;;1.70;1.40;;;22.40;34.30;;;;;;5073956;28;20395;-68
2021/12/14 12:12:21;;;;;;;2.63;1.17;;;22.40;34.10;;;;;;5055344;28;20482;-67
2021/12/14 12:14:55;;;;;;;6.55;1.90;;;22.30;34.30;;;;;;5073746;28;20396;-68
2021/12/14 12:17:35;;;;;;;2.72;1.40;;;22.20;34.40;;;;;;5073515;28;20471;-67
2021/12/14 12:20:24;;;;;;;7.03;1.60;;;22.20;34.40;;;;;;5073073;28;20396;-67
2021/12/14 12:22:58;;;;;;;3.08;1.30;;;22.30;34.50;;;;;;5055270;28;20449;-67
2021/12/14 12:25:38;;;;;;;2.38;1.25;;;22.30;34.40;;;;;;5073062;28;20384;-67
2021/12/14 12:28:14;;;;;;;1.90;1.30;;;22.30;34.30;;;;;;5054802;28;20503;-67
2021/12/14 12:31:01;;;;;;;3.90;1.30;;;22.40;34.20;;;;;;5073257;28;20470;-68
2021/12/14 12:33:29;;;;;;;2.28;1.08;;;22.40;34.20;;;;;;5055594;28;20391;-67
2021/12/14 12:36:06;;;;;;;5.50;1.20;;;22.40;34.10;;;;;;5072778;28;20782;-67
2021/12/14 12:38:44;;;;;;;2.40;1.20;;;22.40;34.10;;;;;;5072994;28;20398;-68
2021/12/14 12:41:26;;;;;;;2.25;1.40;;;22.40;34.00;;;;;;5073417;28;20430;-68
2021/12/14 12:44:21;;;;;;;1.50;1.17;;;22.40;34.00;;;;;;5054832;28;20384;-67
2021/12/14 12:46:56;;;;;;;2.55;1.13;;;22.40;33.90;;;;;;5055600;28;20412;-68
2021/12/14 12:49:24;;;;;;;1.90;1.13;;;22.40;33.90;;;;;;5073008;28;20392;-68
2021/12/14 12:52:27;;;;;;;1.83;1.27;;;22.40;33.90;;;;;;5054642;28;20463;-68
2021/12/14 12:54:57;;;;;;;3.85;1.20;;;22.40;33.90;;;;;;5046519;28;20411;-67
2021/12/14 12:57:33;;;;;;;4.38;1.30;;;22.30;33.90;;;;;;5063678;28;20415;-68
2021/12/14 13:00:09;;;;;;;3.22;1.25;;;22.30;34.20;;;;;;5070461;28;20391;-68
2021/12/14 13:02:44;;;;;;;2.00;1.10;;;22.20;34.40;;;;;;5070111;28;20386;-68
2021/12/14 13:05:27;;;;;;;3.63;1.42;;;22.20;34.50;;;;;;5054186;28;20470;-68
2021/12/14 13:08:05;;;;;;;3.75;1.50;;;22.10;35.20;;;;;;5052013;28;20412;-68
2021/12/14 13:10:56;;;;;;;3.38;1.50;;;22.10;34.60;;;;;;5070634;28;20453;-68
2021/12/14 13:13:31;;;;;;;2.00;1.13;;;22.10;34.70;;;;;;5068551;28;20392;-68
2021/12/14 13:16:08;;;;;;;3.40;1.15;;;22.10;34.80;;;;;;5049676;28;20386;-68
2021/12/14 13:18:44;;;;;;;1.92;1.05;;;22.10;34.80;;;;;;5050540;28;20401;-68
2021/12/14 13:21:16;;;;;;;4.28;1.40;;;22.00;34.80;;;;;;5063007;28;20387;-68
2021/12/14 13:23:51;;;;;;;2.95;1.27;;;22.00;34.80;;;;;;5053211;28;20410;-68
2021/12/14 13:26:33;;;;;;;2.90;1.30;;;22.00;34.80;;;;;;5068038;28;20876;-68
2021/12/14 13:29:11;;;;;;;1.88;1.25;;;22.00;34.90;;;;;;5071304;28;20395;-68
2021/12/14 13:31:54;;;;;;;2.10;1.20;;;22.00;34.90;;;;;;5064977;28;20884;-68
2021/12/14 13:34:30;;;;;;;1.60;0.90;;;22.00;35.00;;;;;;5051832;28;20407;-68
2021/12/14 13:36:57;;;;;;;2.50;1.10;;;21.90;34.90;;;;;;5051937;28;20801;-68
2021/12/14 13:39:24;;;;;;;2.53;1.20;;;21.90;35.00;;;;;;5070196;28;20395;-68
2021/12/14 13:41:58;;;;;;;2.50;1.10;;;21.90;34.90;;;;;;5065111;28;20412;-68
2021/12/14 13:44:32;;;;;;;1.50;1.10;;;21.90;35.00;;;;;;5069475;28;20391;-68
2021/12/14 13:47:00;;;;;;;2.35;1.23;;;21.90;35.00;;;;;;5052500;28;20455;-68
2021/12/14 13:49:27;;;;;;;3.67;1.25;;;21.90;35.10;;;;;;5069536;28;20454;-68
2021/12/14 13:51:54;;;;;;;4.20;1.20;;;21.90;35.00;;;;;;5068544;28;20903;-68
2021/12/14 13:54:21;;;;;;;5.22;1.48;;;21.90;35.10;;;;;;5069427;28;20392;-68
2021/12/14 13:56:48;;;;;;;5.38;1.40;;;21.90;35.10;;;;;;5061591;28;20459;-69
2021/12/14 13:59:16;;;;;;;4.97;1.33;;;21.90;35.20;;;;;;5051566;28;20400;-69
2021/12/14 14:01:47;;;;;;;3.73;1.30;;;21.80;35.20;;;;;;5070052;28;20422;-69
2021/12/14 14:04:17;;;;;;;5.07;2.97;;;21.90;35.10;;;;;;5069035;28;20737;-68
2021/12/14 14:06:43;;;;;;;6.87;2.10;;;22.00;36.70;;;;;;5051769;28;20415;-68